createdAt,value
2022-08-01T00:07:18.652Z,16.70
2022-08-01T00:13:27.995Z,16.70
2022-08-01T00:30:12.380Z,16.40
2022-08-01T00:46:55.219Z,16.40
2022-08-01T01:01:18.427Z,16.50
2022-08-01T01:10:37.761Z,16.50
2022-08-01T01:17:01.473Z,16.50
2022-08-01T01:19:59.403Z,16.70
2022-08-01T01:23:09.593Z,16.80
2022-08-01T01:39:41.112Z,16.50
2022-08-01T01:42:13.219Z,16.00
2022-08-01T01:51:06.181Z,16.30
2022-08-01T02:01:58.290Z,16.50
2022-08-01T02:04:41.172Z,16.50
2022-08-01T02:07:59.507Z,16.60
2022-08-01T02:10:30.169Z,16.70
2022-08-01T02:16:05.717Z,16.60
2022-08-01T02:19:39.796Z,16.50
2022-08-01T02:22:12.964Z,16.40
2022-08-01T02:32:33.744Z,16.40
2022-08-01T02:35:08.468Z,16.30
2022-08-01T02:38:06.543Z,16.50
2022-08-01T02:40:40.329Z,16.30
2022-08-01T03:06:10.645Z,16.30
2022-08-01T03:08:52.136Z,16.30
2022-08-01T03:11:22.075Z,16.50
2022-08-01T03:57:43.900Z,17.90
2022-08-01T04:00:17.774Z,18.40
2022-08-01T04:02:48.290Z,18.40
2022-08-01T04:57:03.523Z,18.80
2022-08-01T04:59:41.716Z,18.60
2022-08-01T05:02:10.976Z,18.80
2022-08-01T05:04:41.286Z,19.00
2022-08-01T05:07:08.571Z,19.20
2022-08-01T05:09:37.731Z,19.40
2022-08-01T05:12:07.225Z,19.70
2022-08-01T05:14:35.152Z,19.70
2022-08-01T05:17:04.987Z,19.50
2022-08-01T05:19:35.451Z,19.60
2022-08-01T05:22:05.599Z,19.60
2022-08-01T05:24:33.914Z,19.40
2022-08-01T05:27:03.402Z,19.60
2022-08-01T05:29:30.713Z,19.80
2022-08-01T05:31:59.652Z,19.80
2022-08-01T05:34:26.730Z,19.90
2022-08-01T05:36:57.744Z,20.10
2022-08-01T05:39:24.859Z,20.30
2022-08-01T05:41:51.654Z,20.10
2022-08-01T05:44:18.460Z,20.30
2022-08-01T05:46:45.218Z,20.60
2022-08-01T05:49:11.935Z,20.80
2022-08-01T05:51:38.976Z,21.10
2022-08-01T05:54:06.288Z,21.10
2022-08-01T05:56:33.497Z,21.30
2022-08-01T05:59:00.289Z,21.40
2022-08-01T06:01:27.378Z,21.30
2022-08-01T06:03:55.280Z,21.50
2022-08-01T06:06:25.220Z,21.70
2022-08-01T06:08:53.015Z,21.90
2022-08-01T06:11:20.267Z,22.10
2022-08-01T06:13:48.630Z,22.40
2022-08-01T06:16:15.953Z,22.60
2022-08-01T06:18:43.057Z,22.80
2022-08-01T06:21:09.807Z,23.00
2022-08-01T06:23:36.804Z,23.20
2022-08-01T06:26:04.281Z,23.70
2022-08-01T06:28:31.291Z,23.90
2022-08-01T06:31:00.134Z,24.20
2022-08-01T06:33:27.789Z,24.40
2022-08-01T06:35:55.231Z,24.80
2022-08-01T06:38:23.474Z,25.00
2022-08-01T06:40:50.541Z,24.70
2022-08-01T06:43:17.729Z,24.70
2022-08-01T06:45:44.989Z,24.60
2022-08-01T06:48:11.723Z,24.40
2022-08-01T06:50:38.631Z,24.20
2022-08-01T06:53:05.708Z,24.40
2022-08-01T06:55:32.821Z,24.80
2022-08-01T06:57:59.807Z,24.90
2022-08-01T07:00:28.084Z,24.90
2022-08-01T07:02:57.956Z,25.20
2022-08-01T07:05:25.344Z,25.50
2022-08-01T07:07:52.097Z,25.80
2022-08-01T07:10:19.325Z,26.40
2022-08-01T07:12:46.631Z,27.10
2022-08-01T07:15:13.618Z,27.50
2022-08-01T07:17:42.315Z,27.70
2022-08-01T07:20:11.314Z,27.80
2022-08-01T07:22:38.873Z,27.60
2022-08-01T07:25:09.098Z,27.70
2022-08-01T07:27:39.854Z,27.60
2022-08-01T07:30:07.207Z,27.30
2022-08-01T07:32:36.425Z,27.30
2022-08-01T07:35:04.162Z,27.30
2022-08-01T07:37:45.233Z,27.50
2022-08-01T07:40:20.080Z,27.40
2022-08-01T07:42:48.965Z,27.50
2022-08-01T07:45:48.944Z,27.50
2022-08-01T07:48:17.782Z,27.30
2022-08-01T07:50:45.055Z,27.00
2022-08-01T07:53:12.468Z,27.10
2022-08-01T07:55:39.273Z,27.00
2022-08-01T07:58:05.992Z,27.20
2022-08-01T08:00:33.290Z,28.00
2022-08-01T08:03:00.414Z,28.00
2022-08-01T08:05:58.534Z,27.80
2022-08-01T08:08:19.114Z,27.80
2022-08-01T08:10:48.810Z,27.70
2022-08-01T08:13:15.637Z,27.40
2022-08-01T08:15:42.856Z,27.90
2022-08-01T08:18:15.211Z,27.80
2022-08-01T08:20:42.370Z,28.70
2022-08-01T08:23:41.338Z,29.20
2022-08-01T08:26:09.014Z,29.90
2022-08-01T08:28:35.792Z,31.80
2022-08-01T08:31:02.507Z,31.70
2022-08-01T08:33:29.573Z,31.10
2022-08-01T08:35:56.358Z,30.70
2022-08-01T08:38:28.377Z,30.40
2022-08-01T08:40:57.781Z,29.60
2022-08-01T08:43:27.268Z,28.50
2022-08-01T08:45:58.642Z,27.70
2022-08-01T08:48:28.187Z,27.10
2022-08-01T08:50:56.282Z,26.80
2022-08-01T08:53:23.678Z,26.80
2022-08-01T08:55:55.651Z,26.40
2022-08-01T08:58:30.490Z,26.50
2022-08-01T09:00:58.999Z,26.80
2022-08-01T09:03:26.007Z,26.90
2022-08-01T09:05:52.874Z,26.90
2022-08-01T09:08:19.689Z,26.90
2022-08-01T09:10:46.564Z,27.10
2022-08-01T09:13:15.445Z,27.90
2022-08-01T09:15:55.116Z,29.30
2022-08-01T09:18:29.333Z,29.20
2022-08-01T09:21:11.323Z,29.00
2022-08-01T09:23:54.259Z,28.50
2022-08-01T09:26:31.334Z,28.00
2022-08-01T09:29:00.346Z,28.40
2022-08-01T09:31:38.199Z,28.70
2022-08-01T09:34:05.758Z,28.80
2022-08-01T09:37:02.671Z,29.40
2022-08-01T09:39:37.412Z,29.90
2022-08-01T09:42:29.195Z,30.20
2022-08-01T09:44:56.755Z,29.90
2022-08-01T09:47:37.242Z,29.70
2022-08-01T09:50:10.672Z,29.50
2022-08-01T09:52:38.127Z,29.70
2022-08-01T09:55:08.693Z,30.20
2022-08-01T09:57:35.929Z,30.40
2022-08-01T10:00:04.895Z,30.50
2022-08-01T10:02:37.343Z,30.30
2022-08-01T10:05:10.279Z,30.00
2022-08-01T10:07:58.072Z,29.50
2022-08-01T10:10:28.884Z,29.60
2022-08-01T10:12:59.011Z,29.50
2022-08-01T10:15:36.753Z,29.20
2022-08-01T10:18:16.393Z,29.10
2022-08-01T10:20:52.996Z,29.40
2022-08-01T10:23:40.690Z,29.50
2022-08-01T10:26:11.066Z,29.50
2022-08-01T10:28:39.399Z,29.30
2022-08-01T10:31:12.462Z,29.10
2022-08-01T10:33:51.724Z,28.90
2022-08-01T10:36:25.316Z,28.90
2022-08-01T10:38:55.328Z,29.00
2022-08-01T10:41:22.671Z,29.30
2022-08-01T10:43:49.927Z,29.80
2022-08-01T10:46:19.436Z,30.50
2022-08-01T10:48:56.936Z,30.50
2022-08-01T10:51:51.634Z,32.00
2022-08-01T10:54:13.617Z,30.70
2022-08-01T10:56:48.977Z,30.90
2022-08-01T10:59:49.199Z,30.50
2022-08-01T11:02:09.659Z,30.10
2022-08-01T11:04:55.768Z,29.90
2022-08-01T11:07:49.755Z,30.10
2022-08-01T11:10:46.885Z,30.50
2022-08-01T11:13:14.454Z,30.00
2022-08-01T11:15:50.316Z,29.50
2022-08-01T11:18:52.823Z,29.40
2022-08-01T11:21:59.150Z,29.40
2022-08-01T11:24:07.178Z,29.60
2022-08-01T11:26:34.632Z,30.00
2022-08-01T11:29:21.531Z,30.20
2022-08-01T11:34:16.695Z,29.80
2022-08-01T11:36:59.863Z,29.90
2022-08-01T11:39:27.376Z,30.10
2022-08-01T11:41:55.582Z,30.40
2022-08-01T11:44:30.539Z,30.40
2022-08-01T11:47:09.986Z,30.60
2022-08-01T11:49:48.928Z,30.70
2022-08-01T11:52:17.088Z,30.60
2022-08-01T11:54:50.695Z,30.80
2022-08-01T11:57:23.675Z,31.00
2022-08-01T12:00:24.719Z,31.10
2022-08-01T12:03:07.647Z,30.50
2022-08-01T12:05:37.942Z,30.60
2022-08-01T12:08:10.169Z,30.30
2022-08-01T12:10:49.628Z,30.00
2022-08-01T12:13:19.037Z,30.20
2022-08-01T12:15:47.809Z,30.30
2022-08-01T12:18:16.958Z,30.50
2022-08-01T12:21:01.273Z,30.60
2022-08-01T12:25:59.444Z,30.70
2022-08-01T12:28:27.216Z,30.50
2022-08-01T12:33:22.440Z,29.90
2022-08-01T12:38:19.763Z,29.30
2022-08-01T12:40:52.382Z,29.30
2022-08-01T12:43:28.298Z,29.70
2022-08-01T12:46:00.949Z,29.60
2022-08-01T12:48:31.678Z,29.80
2022-08-01T12:51:01.466Z,29.50
2022-08-01T12:53:40.842Z,29.10
2022-08-01T12:56:10.794Z,28.70
2022-08-01T12:58:37.742Z,28.20
2022-08-01T13:01:10.575Z,28.10
2022-08-01T13:03:38.767Z,28.30
2022-08-01T13:06:16.236Z,28.50
2022-08-01T13:08:44.879Z,29.00
2022-08-01T13:11:17.569Z,29.30
2022-08-01T13:13:50.586Z,29.30
2022-08-01T13:16:30.221Z,29.40
2022-08-01T13:19:07.212Z,29.20
2022-08-01T13:21:53.344Z,29.20
2022-08-01T13:24:30.324Z,29.20
2022-08-01T13:27:00.838Z,28.90
2022-08-01T13:29:44.193Z,28.70
2022-08-01T13:32:28.303Z,28.60
2022-08-01T13:35:05.990Z,28.70
2022-08-01T13:37:37.097Z,29.00
2022-08-01T13:40:07.155Z,29.20
2022-08-01T13:42:36.760Z,29.20
2022-08-01T13:45:13.766Z,29.10
2022-08-01T13:48:03.139Z,28.90
2022-08-01T13:50:30.528Z,28.80
2022-08-01T13:52:58.143Z,28.60
2022-08-01T13:55:25.534Z,28.30
2022-08-01T13:57:52.941Z,28.20
2022-08-01T14:00:21.073Z,28.20
2022-08-01T14:02:47.880Z,28.30
2022-08-01T14:05:14.647Z,28.40
2022-08-01T14:07:41.582Z,28.20
2022-08-01T14:10:18.450Z,27.90
2022-08-01T14:12:47.748Z,27.70
2022-08-01T14:15:38.172Z,27.40
2022-08-01T14:18:07.434Z,27.00
2022-08-01T14:20:38.934Z,26.80
2022-08-01T14:23:08.627Z,26.80
2022-08-01T14:26:03.094Z,26.80
2022-08-01T14:28:28.430Z,26.80
2022-08-01T14:31:00.580Z,26.90
2022-08-01T14:33:27.756Z,26.80
2022-08-01T14:36:06.154Z,26.90
2022-08-01T14:38:41.948Z,26.90
2022-08-01T14:41:10.134Z,27.00
2022-08-01T14:43:36.892Z,27.20
2022-08-01T14:46:05.078Z,27.20
2022-08-01T14:48:32.534Z,27.30
2022-08-01T14:51:03.550Z,27.40
2022-08-01T14:53:31.157Z,27.40
2022-08-01T14:56:01.409Z,27.40
2022-08-01T14:58:28.164Z,27.20
2022-08-01T15:00:58.502Z,27.20
2022-08-01T15:03:26.165Z,27.30
2022-08-01T15:05:52.937Z,27.20
2022-08-01T15:08:19.915Z,27.30
2022-08-01T15:10:54.356Z,27.40
2022-08-01T15:13:21.143Z,27.70
2022-08-01T15:15:48.415Z,27.80
2022-08-01T15:18:15.498Z,27.70
2022-08-01T15:20:43.351Z,27.50
2022-08-01T15:23:10.407Z,27.40
2022-08-01T15:25:41.407Z,27.00
2022-08-01T15:28:10.559Z,26.90
2022-08-01T15:30:38.075Z,26.80
2022-08-01T15:33:04.816Z,27.00
2022-08-01T15:35:31.671Z,26.90
2022-08-01T15:37:58.447Z,26.80
2022-08-01T15:40:25.936Z,26.60
2022-08-01T15:42:53.272Z,26.30
2022-08-01T15:45:45.723Z,26.10
2022-08-01T15:48:08.848Z,26.00
2022-08-01T15:50:39.651Z,25.70
2022-08-01T15:53:07.458Z,25.20
2022-08-01T15:55:38.800Z,25.00
2022-08-01T15:58:07.107Z,24.90
2022-08-01T16:00:39.341Z,24.70
2022-08-01T16:03:07.473Z,24.60
2022-08-01T16:05:42.930Z,24.50
2022-08-01T16:08:14.293Z,24.40
2022-08-01T16:10:41.720Z,24.30
2022-08-01T16:13:08.952Z,24.40
2022-08-01T16:15:37.455Z,24.50
2022-08-01T16:18:09.950Z,24.60
2022-08-01T16:20:41.502Z,24.60
2022-08-01T16:23:12.553Z,24.50
2022-08-01T16:25:39.613Z,24.60
2022-08-01T16:28:06.804Z,24.30
2022-08-01T16:30:33.494Z,24.20
2022-08-01T16:33:00.736Z,24.10
2022-08-01T16:35:40.632Z,24.00
2022-08-01T16:38:10.633Z,23.90
2022-08-01T16:40:47.216Z,23.90
2022-08-01T16:43:19.711Z,23.80
2022-08-01T16:45:49.429Z,23.70
2022-08-01T16:48:18.739Z,23.70
2022-08-01T16:50:50.545Z,23.70
2022-08-01T16:53:22.491Z,23.70
2022-08-01T16:55:58.188Z,23.50
2022-08-01T16:58:27.898Z,23.40
2022-08-01T17:00:56.676Z,23.30
2022-08-01T17:03:51.858Z,23.10
2022-08-01T17:06:13.021Z,23.10
2022-08-01T17:08:46.493Z,22.90
2022-08-01T17:11:15.349Z,22.90
2022-08-01T17:13:42.586Z,22.90
2022-08-01T17:16:10.123Z,22.90
2022-08-01T17:18:36.903Z,22.90
2022-08-01T17:21:04.213Z,22.90
2022-08-01T17:23:34.143Z,22.90
2022-08-01T17:26:04.263Z,22.80
2022-08-01T17:28:32.105Z,22.80
2022-08-01T17:30:59.987Z,22.70
2022-08-01T17:33:45.370Z,22.60
2022-08-01T17:36:14.666Z,22.50
2022-08-01T17:38:41.406Z,22.60
2022-08-01T17:41:08.159Z,22.50
2022-08-01T17:43:35.208Z,22.50
2022-08-01T17:46:01.931Z,22.30
2022-08-01T17:48:29.879Z,22.20
2022-08-01T17:50:56.926Z,22.00
2022-08-01T17:53:24.458Z,22.10
2022-08-01T17:55:55.276Z,22.00
2022-08-01T17:58:50.609Z,22.00
2022-08-01T18:01:13.912Z,22.00
2022-08-01T18:03:41.785Z,21.90
2022-08-01T18:06:09.832Z,21.90
2022-08-01T18:08:40.822Z,21.70
2022-08-01T18:11:08.138Z,21.70
2022-08-01T18:13:40.961Z,21.60
2022-08-01T18:16:09.888Z,21.50
2022-08-01T18:18:38.793Z,21.50
2022-08-01T18:21:06.665Z,21.50
2022-08-01T18:23:34.816Z,21.50
2022-08-01T18:26:02.762Z,21.50
2022-08-01T18:28:36.538Z,21.50
2022-08-01T18:31:06.694Z,21.50
2022-08-01T18:33:35.549Z,21.50
2022-08-01T18:36:04.449Z,21.40
2022-08-01T18:38:33.164Z,21.30
2022-08-01T18:41:00.873Z,21.30
2022-08-01T18:43:28.614Z,21.30
2022-08-01T18:45:57.674Z,21.20
2022-08-01T18:48:24.687Z,21.10
2022-08-01T18:50:54.282Z,21.10
2022-08-01T18:53:23.766Z,21.00
2022-08-01T18:55:51.052Z,21.00
2022-08-01T18:58:18.537Z,20.90
2022-08-01T19:00:45.268Z,20.90
2022-08-01T19:03:13.712Z,20.80
2022-08-01T19:05:40.545Z,20.80
2022-08-01T19:08:08.162Z,20.70
2022-08-01T19:10:42.300Z,20.70
2022-08-01T19:13:09.278Z,20.60
2022-08-01T19:15:36.376Z,20.50
2022-08-01T19:18:04.294Z,20.50
2022-08-01T19:20:31.382Z,20.40
2022-08-01T19:22:58.699Z,20.40
2022-08-01T19:25:25.807Z,20.30
2022-08-01T19:27:54.566Z,20.30
2022-08-01T19:30:21.294Z,20.30
2022-08-01T19:32:49.235Z,20.30
2022-08-01T19:35:17.352Z,20.30
2022-08-01T19:37:47.503Z,20.10
2022-08-01T19:40:27.099Z,20.10
2022-08-01T19:42:57.516Z,20.10
2022-08-01T19:45:28.834Z,20.10
2022-08-01T19:47:56.683Z,20.20
2022-08-01T19:50:29.233Z,20.10
2022-08-01T19:52:58.977Z,19.90
2022-08-01T19:55:28.874Z,20.10
2022-08-01T20:00:55.976Z,20.20
2022-08-01T20:06:44.481Z,20.40
2022-08-01T20:09:23.496Z,20.80
2022-08-01T20:12:02.402Z,20.70
2022-08-01T20:14:30.593Z,20.70
2022-08-01T20:17:02.245Z,20.80
2022-08-01T20:19:35.044Z,20.90
2022-08-01T20:22:06.080Z,20.90
2022-08-01T20:24:41.105Z,20.90
2022-08-01T20:27:13.040Z,20.80
2022-08-01T20:29:51.966Z,21.30
2022-08-01T20:32:20.454Z,21.20
2022-08-01T20:38:06.571Z,21.30
2022-08-01T20:40:36.694Z,21.10
2022-08-01T20:43:05.097Z,21.20
2022-08-01T20:45:37.268Z,21.10
2022-08-01T20:48:15.585Z,20.90
2022-08-01T20:51:03.580Z,20.80
2022-08-01T20:53:37.148Z,20.70
2022-08-01T20:56:08.938Z,20.80
2022-08-01T20:58:47.045Z,20.80
2022-08-01T21:01:17.739Z,20.70
2022-08-01T21:04:22.327Z,20.70
2022-08-01T21:07:25.447Z,20.40
2022-08-01T21:10:09.827Z,20.30
2022-08-01T21:12:50.240Z,20.20
2022-08-01T21:15:55.107Z,20.30
2022-08-01T21:19:19.072Z,20.20
2022-08-01T21:21:51.174Z,20.10
2022-08-01T21:24:22.059Z,20.20
2022-08-01T21:26:50.241Z,20.20
2022-08-01T21:29:20.238Z,20.00
2022-08-01T21:32:09.291Z,19.90
2022-08-01T21:34:38.539Z,19.80
2022-08-01T21:37:09.606Z,19.70
2022-08-01T21:39:37.567Z,19.80
2022-08-01T21:42:09.131Z,19.70
2022-08-01T21:44:38.842Z,19.60
2022-08-01T21:47:11.960Z,19.80
2022-08-01T21:49:40.654Z,19.90
2022-08-01T21:52:21.357Z,19.90
2022-08-01T21:55:10.632Z,19.70
2022-08-01T21:58:09.685Z,19.70
2022-08-01T22:00:39.530Z,19.70
2022-08-01T22:03:26.539Z,19.50
2022-08-01T22:05:58.018Z,19.50
2022-08-01T22:08:36.453Z,19.50
2022-08-01T22:11:06.838Z,19.40
2022-08-01T22:13:35.642Z,19.50
2022-08-01T22:16:04.853Z,19.60
2022-08-01T22:18:33.636Z,19.60
2022-08-01T22:21:03.436Z,19.70
2022-08-01T22:23:34.774Z,19.60
2022-08-01T22:26:05.430Z,19.60
2022-08-01T22:28:34.783Z,19.50
2022-08-01T22:31:03.797Z,19.50
2022-08-01T22:33:36.514Z,19.40
2022-08-01T22:36:05.260Z,19.30
2022-08-01T22:38:32.617Z,19.20
2022-08-01T22:41:06.027Z,19.10
2022-08-01T22:43:42.093Z,19.10
2022-08-01T22:46:24.292Z,19.10
2022-08-01T22:49:03.263Z,19.00
2022-08-01T22:52:15.857Z,19.10
2022-08-01T22:54:49.102Z,19.10
2022-08-01T22:57:40.443Z,19.10
2022-08-01T23:00:11.427Z,19.00
2022-08-01T23:02:45.368Z,19.00
2022-08-01T23:05:17.455Z,19.10
2022-08-01T23:07:50.456Z,19.20
2022-08-01T23:10:21.138Z,19.20
2022-08-01T23:12:51.018Z,19.30
2022-08-01T23:15:21.032Z,19.50
2022-08-01T23:17:49.099Z,19.50
2022-08-01T23:20:17.371Z,19.60
2022-08-01T23:22:45.372Z,19.50
2022-08-01T23:25:14.747Z,19.40
2022-08-01T23:28:03.778Z,19.20
2022-08-01T23:30:32.878Z,19.20
2022-08-01T23:33:00.230Z,19.20
2022-08-01T23:35:27.707Z,19.20
2022-08-01T23:38:01.879Z,19.20
2022-08-01T23:40:31.725Z,19.10
2022-08-01T23:42:59.433Z,19.20
2022-08-01T23:45:26.297Z,19.10
2022-08-01T23:47:53.169Z,19.20
2022-08-01T23:50:22.157Z,19.10
2022-08-01T23:52:51.344Z,19.10
2022-08-01T23:55:27.787Z,19.10
2022-08-01T23:58:06.788Z,19.20
